createdAt,value
2022-10-07T00:02:15.014Z,101168.31
2022-10-07T00:05:03.013Z,101172.47
2022-10-07T00:07:50.941Z,101165.00
2022-10-07T00:10:42.150Z,101167.56
2022-10-07T00:13:30.024Z,101165.81
2022-10-07T00:16:37.288Z,101154.97
2022-10-07T00:19:25.221Z,101160.38
2022-10-07T00:22:13.279Z,101158.03
2022-10-07T00:25:01.198Z,101157.03
2022-10-07T00:27:50.328Z,101157.78
2022-10-07T00:30:38.301Z,101149.56
2022-10-07T00:33:26.705Z,101140.25
2022-10-07T00:36:23.756Z,101145.69
2022-10-07T00:39:14.730Z,101141.84
2022-10-07T00:42:02.672Z,101136.94
2022-10-07T00:44:50.384Z,101135.16
2022-10-07T00:47:38.189Z,101142.88
2022-10-07T00:50:29.445Z,101146.75
2022-10-07T00:53:17.519Z,101133.13
2022-10-07T00:56:07.976Z,101135.19
2022-10-07T00:58:56.941Z,101119.97
2022-10-07T01:01:44.889Z,101124.88
2022-10-07T01:04:32.978Z,101121.78
2022-10-07T01:07:21.737Z,101121.56
2022-10-07T01:10:11.793Z,101111.50
2022-10-07T01:13:05.421Z,101114.09
2022-10-07T01:16:12.677Z,101111.75
2022-10-07T01:19:51.415Z,101106.63
2022-10-07T01:22:56.819Z,101107.66
2022-10-07T01:26:08.568Z,101099.66
2022-10-07T01:29:09.432Z,101099.41
2022-10-07T01:32:23.492Z,101089.34
2022-10-07T01:35:21.559Z,101082.16
2022-10-07T01:38:13.081Z,101081.88
2022-10-07T01:41:21.265Z,101082.66
2022-10-07T01:44:11.935Z,101080.88
2022-10-07T01:47:02.145Z,101082.19
2022-10-07T01:49:50.104Z,101071.34
2022-10-07T01:52:51.379Z,101066.72
2022-10-07T01:55:48.608Z,101068.03
2022-10-07T01:59:16.842Z,101061.34
2022-10-07T02:02:48.052Z,101058.22
2022-10-07T02:05:49.958Z,101053.59
2022-10-07T02:08:51.961Z,101055.69
2022-10-07T02:11:43.091Z,101059.03
2022-10-07T02:14:44.295Z,101048.22
2022-10-07T02:17:37.660Z,101044.63
2022-10-07T02:20:32.008Z,101037.41
2022-10-07T02:23:22.360Z,101034.56
2022-10-07T02:26:13.299Z,101020.88
2022-10-07T02:29:05.269Z,101036.34
2022-10-07T02:31:54.712Z,101030.44
2022-10-07T02:34:45.919Z,101033.78
2022-10-07T02:37:36.140Z,101023.75
2022-10-07T02:40:32.728Z,101014.47
2022-10-07T02:43:45.792Z,101019.91
2022-10-07T02:46:50.132Z,101024.00
2022-10-07T02:49:40.680Z,101007.50
2022-10-07T02:52:31.254Z,101015.78
2022-10-07T02:55:23.286Z,101014.25
2022-10-07T02:58:13.511Z,101002.91
2022-10-07T03:01:03.794Z,101001.13
2022-10-07T03:03:51.606Z,101008.31
2022-10-07T03:06:42.032Z,101001.63
2022-10-07T03:09:30.504Z,101006.50
2022-10-07T03:12:18.499Z,101005.00
2022-10-07T03:15:06.822Z,101005.00
2022-10-07T03:17:54.746Z,100998.31
2022-10-07T03:20:42.463Z,101000.38
2022-10-07T03:23:30.658Z,100998.56
2022-10-07T03:26:19.126Z,100994.19
2022-10-07T03:29:08.331Z,100987.75
2022-10-07T03:31:56.071Z,100991.88
2022-10-07T03:34:43.831Z,100983.88
2022-10-07T03:37:32.001Z,100984.66
2022-10-07T03:40:20.350Z,100978.75
2022-10-07T03:43:09.356Z,100982.88
2022-10-07T03:45:58.467Z,100981.34
2022-10-07T03:48:46.469Z,100973.34
2022-10-07T03:51:36.003Z,100968.97
2022-10-07T03:54:23.736Z,100973.13
2022-10-07T03:57:30.193Z,100972.34
2022-10-07T04:00:20.934Z,100965.66
2022-10-07T04:03:09.583Z,100962.03
2022-10-07T04:05:59.914Z,100959.75
2022-10-07T04:08:52.854Z,100958.19
2022-10-07T04:11:41.714Z,100962.81
2022-10-07T04:14:29.494Z,100953.81
2022-10-07T04:17:21.839Z,100950.22
2022-10-07T04:20:10.974Z,100962.06
2022-10-07T04:22:58.763Z,100954.09
2022-10-07T04:25:47.560Z,100950.50
2022-10-07T04:28:35.675Z,100957.44
2022-10-07T04:31:23.903Z,100945.31
2022-10-07T04:34:11.952Z,100955.13
2022-10-07T04:37:01.140Z,100948.69
2022-10-07T04:40:00.323Z,100942.00
2022-10-07T04:43:07.779Z,100949.72
2022-10-07T04:46:15.847Z,100938.16
2022-10-07T04:49:03.733Z,100945.88
2022-10-07T04:51:52.758Z,100937.16
2022-10-07T04:54:40.693Z,100932.75
2022-10-07T04:57:28.396Z,100930.44
2022-10-07T05:00:16.382Z,100942.53
2022-10-07T05:03:04.186Z,100938.94
2022-10-07T05:05:57.084Z,100947.41
2022-10-07T05:08:45.262Z,100936.63
2022-10-07T05:11:33.036Z,100937.91
2022-10-07T05:14:21.539Z,100935.59
2022-10-07T05:17:09.377Z,100926.34
2022-10-07T05:19:57.082Z,100931.22
2022-10-07T05:22:44.795Z,100929.69
2022-10-07T05:25:32.514Z,100921.22
2022-10-07T05:28:20.254Z,100928.16
2022-10-07T05:31:11.854Z,100918.88
2022-10-07T05:34:00.325Z,100910.88
2022-10-07T05:36:48.135Z,100917.81
2022-10-07T05:39:38.209Z,100917.06
2022-10-07T05:42:25.953Z,100913.44
2022-10-07T05:45:13.754Z,100913.19
2022-10-07T05:48:01.641Z,100911.88
2022-10-07T05:50:49.412Z,100907.47
2022-10-07T05:53:41.191Z,100890.72
2022-10-07T05:56:29.180Z,100894.31
2022-10-07T05:59:17.027Z,100895.31
2022-10-07T06:02:04.882Z,100894.81
2022-10-07T06:04:52.719Z,100888.38
2022-10-07T06:07:40.447Z,100892.75
2022-10-07T06:10:46.761Z,100890.94
2022-10-07T06:13:35.729Z,100879.34
2022-10-07T06:16:24.502Z,100879.44
2022-10-07T06:19:22.709Z,100882.94
2022-10-07T06:22:11.175Z,100892.97
2022-10-07T06:25:02.062Z,100892.97
2022-10-07T06:27:53.875Z,100895.03
2022-10-07T06:30:42.253Z,100897.38
2022-10-07T06:33:30.018Z,100902.75
2022-10-07T06:36:18.413Z,100897.31
2022-10-07T06:39:06.213Z,100891.13
2022-10-07T06:41:54.644Z,100885.16
2022-10-07T06:44:43.035Z,100885.66
2022-10-07T06:47:30.886Z,100888.22
2022-10-07T06:50:18.691Z,100892.53
2022-10-07T06:53:06.446Z,100897.16
2022-10-07T06:55:54.755Z,100891.97
2022-10-07T06:58:43.406Z,100894.50
2022-10-07T07:01:31.436Z,100902.44
2022-10-07T07:04:19.267Z,100903.94
2022-10-07T07:07:07.295Z,100903.69
2022-10-07T07:09:55.057Z,100906.22
2022-10-07T07:12:43.097Z,100910.84
2022-10-07T07:15:31.289Z,100904.16
2022-10-07T07:18:19.020Z,100900.25
2022-10-07T07:21:07.767Z,100901.28
2022-10-07T07:23:56.422Z,100902.53
2022-10-07T07:26:44.143Z,100902.00
2022-10-07T07:29:32.081Z,100891.69
2022-10-07T07:32:19.838Z,100893.69
2022-10-07T07:35:08.160Z,100887.69
2022-10-07T07:37:55.910Z,100888.66
2022-10-07T07:40:43.653Z,100888.56
2022-10-07T07:43:31.617Z,100892.63
2022-10-07T07:46:21.982Z,100889.44
2022-10-07T07:49:11.964Z,100876.47
2022-10-07T07:52:00.640Z,100882.56
2022-10-07T07:54:48.962Z,100881.69
2022-10-07T07:57:37.212Z,100878.94
2022-10-07T08:00:24.982Z,100876.75
2022-10-07T08:03:12.755Z,100882.31
2022-10-07T08:06:02.161Z,100866.22
2022-10-07T08:08:51.909Z,100867.91
2022-10-07T08:11:42.146Z,100866.00
2022-10-07T08:14:31.123Z,100860.22
2022-10-07T08:17:18.880Z,100853.38
2022-10-07T08:20:08.683Z,100856.94
2022-10-07T08:22:58.992Z,100857.06
2022-10-07T08:25:47.102Z,100851.53
2022-10-07T08:28:36.158Z,100851.97
2022-10-07T08:31:27.999Z,100845.47
2022-10-07T08:34:16.016Z,100837.41
2022-10-07T08:37:03.853Z,100849.75
2022-10-07T08:39:52.482Z,100840.38
2022-10-07T08:42:46.336Z,100846.53
2022-10-07T08:45:34.525Z,100844.09
2022-10-07T08:48:32.929Z,100839.41
2022-10-07T08:51:48.491Z,100839.09
2022-10-07T08:54:39.349Z,100836.47
2022-10-07T08:57:54.832Z,100834.63
2022-10-07T09:01:03.411Z,100825.75
2022-10-07T09:04:26.015Z,100821.31
2022-10-07T09:07:26.871Z,100811.69
2022-10-07T09:10:37.575Z,100806.41
2022-10-07T09:13:35.801Z,100806.88
2022-10-07T09:16:35.218Z,100803.69
2022-10-07T09:19:33.104Z,100805.69
2022-10-07T09:22:29.314Z,100802.50
2022-10-07T09:25:25.216Z,100789.50
2022-10-07T09:28:15.451Z,100786.31
2022-10-07T09:31:03.365Z,100784.69
2022-10-07T09:33:52.935Z,100783.59
2022-10-07T09:37:21.945Z,100789.94
2022-10-07T09:40:30.063Z,100775.34
2022-10-07T09:43:19.632Z,100779.94
2022-10-07T09:46:46.815Z,100776.25
2022-10-07T09:49:49.343Z,100777.66
2022-10-07T09:52:40.271Z,100765.16
2022-10-07T09:55:40.482Z,100767.09
2022-10-07T09:58:32.425Z,100763.94
2022-10-07T10:01:23.091Z,100765.69
2022-10-07T10:04:18.133Z,100768.19
2022-10-07T10:07:22.288Z,100758.59
2022-10-07T10:10:18.651Z,100752.53
2022-10-07T10:13:10.755Z,100756.34
2022-10-07T10:16:00.172Z,100755.81
2022-10-07T10:19:22.639Z,100750.53
2022-10-07T10:22:26.868Z,100753.59
2022-10-07T10:25:34.354Z,100737.47
2022-10-07T10:28:42.912Z,100733.84
2022-10-07T10:31:45.350Z,100724.97
2022-10-07T10:35:00.309Z,100721.56
2022-10-07T10:38:27.909Z,100712.66
2022-10-07T10:41:31.080Z,100707.94
2022-10-07T10:44:33.911Z,100710.66
2022-10-07T10:48:11.199Z,100703.31
2022-10-07T10:51:14.020Z,100689.09
2022-10-07T10:54:13.539Z,100689.31
2022-10-07T10:57:34.213Z,100676.44
2022-10-07T11:00:23.495Z,100686.41
2022-10-07T11:03:34.152Z,100678.84
2022-10-07T11:06:26.513Z,100671.44
2022-10-07T11:09:28.603Z,100671.84
2022-10-07T11:12:27.785Z,100666.00
2022-10-07T11:15:32.754Z,100662.25
2022-10-07T11:18:45.637Z,100652.56
2022-10-07T11:21:42.966Z,100653.72
2022-10-07T11:24:43.564Z,100642.94
2022-10-07T11:27:34.776Z,100639.91
2022-10-07T11:30:37.712Z,100630.44
2022-10-07T11:33:39.339Z,100628.19
2022-10-07T11:36:58.817Z,100623.63
2022-10-07T11:39:49.169Z,100624.06
2022-10-07T11:42:51.663Z,100601.63
2022-10-07T11:45:49.982Z,100592.16
2022-10-07T11:48:45.885Z,100580.34
2022-10-07T11:51:46.099Z,100584.38
2022-10-07T11:54:50.224Z,100580.56
2022-10-07T11:57:40.628Z,100579.44
2022-10-07T12:00:34.012Z,100569.75
2022-10-07T12:03:21.706Z,100567.84
2022-10-07T12:06:13.407Z,100565.94
2022-10-07T12:09:58.331Z,100549.75
2022-10-07T12:12:56.969Z,100549.19
2022-10-07T12:15:48.071Z,100539.88
2022-10-07T12:18:37.899Z,100532.06
2022-10-07T12:21:25.859Z,100525.78
2022-10-07T12:24:15.825Z,100521.00
2022-10-07T12:27:27.355Z,100514.75
2022-10-07T12:30:42.521Z,100506.91
2022-10-07T12:33:46.276Z,100514.94
2022-10-07T12:36:34.257Z,100498.34
2022-10-07T12:39:36.520Z,100499.31
2022-10-07T12:42:24.972Z,100491.50
2022-10-07T12:45:14.635Z,100490.34
2022-10-07T12:48:04.579Z,100490.56
2022-10-07T12:50:56.995Z,100492.84
2022-10-07T12:53:48.857Z,100489.66
2022-10-07T12:56:44.291Z,100484.88
2022-10-07T12:59:47.726Z,100478.56
2022-10-07T13:03:19.172Z,100467.34
2022-10-07T13:06:49.006Z,100463.91
2022-10-07T13:10:28.374Z,100462.59
2022-10-07T13:13:26.645Z,100454.03
2022-10-07T13:16:59.065Z,100451.53
2022-10-07T13:20:54.259Z,100450.19
2022-10-07T13:23:51.574Z,100447.34
2022-10-07T13:26:45.981Z,100442.41
2022-10-07T13:29:37.609Z,100434.75
2022-10-07T13:32:35.732Z,100424.09
2022-10-07T13:35:36.248Z,100430.56
2022-10-07T13:38:28.361Z,100410.38
2022-10-07T13:41:27.532Z,100416.09
2022-10-07T13:44:20.167Z,100413.03
2022-10-07T13:47:09.970Z,100410.38
2022-10-07T13:49:59.313Z,100406.00
2022-10-07T13:52:51.738Z,100398.16
2022-10-07T13:55:39.479Z,100396.09
2022-10-07T13:58:27.593Z,100391.13
2022-10-07T14:01:15.938Z,100382.56
2022-10-07T14:04:33.402Z,100374.56
2022-10-07T14:07:27.004Z,100376.84
2022-10-07T14:10:14.759Z,100363.31
2022-10-07T14:13:09.666Z,100366.34
2022-10-07T14:15:59.223Z,100351.50
2022-10-07T14:18:47.963Z,100355.09
2022-10-07T14:21:41.286Z,100345.59
2022-10-07T14:24:30.537Z,100342.53
2022-10-07T14:27:56.882Z,100345.22
2022-10-07T14:31:26.324Z,100332.09
2022-10-07T14:34:38.199Z,100334.75
2022-10-07T14:37:31.774Z,100321.03
2022-10-07T14:40:23.535Z,100324.50
2022-10-07T14:43:11.188Z,100320.66
2022-10-07T14:46:18.132Z,100310.00
2022-10-07T14:49:08.640Z,100307.72
2022-10-07T14:51:59.690Z,100300.47
2022-10-07T14:54:48.531Z,100304.09
2022-10-07T14:57:36.348Z,100292.84
2022-10-07T15:00:29.197Z,100297.03
2022-10-07T15:03:16.997Z,100303.34
2022-10-07T15:06:07.067Z,100290.38
2022-10-07T15:08:54.868Z,100295.91
2022-10-07T15:11:42.633Z,100291.34
2022-10-07T15:14:30.392Z,100288.88
2022-10-07T15:17:20.457Z,100280.88
2022-10-07T15:20:12.289Z,100279.34
2022-10-07T15:23:02.448Z,100281.44
2022-10-07T15:25:52.410Z,100278.25
2022-10-07T15:28:42.499Z,100282.25
2022-10-07T15:31:30.618Z,100277.66
2022-10-07T15:34:18.762Z,100275.41
2022-10-07T15:37:09.270Z,100269.47
2022-10-07T15:40:00.052Z,100271.56
2022-10-07T15:42:48.413Z,100263.78
2022-10-07T15:45:36.424Z,100263.78
2022-10-07T15:48:29.914Z,100268.72
2022-10-07T15:51:17.666Z,100265.13
2022-10-07T15:54:06.773Z,100272.34
2022-10-07T15:56:54.522Z,100262.28
2022-10-07T15:59:45.622Z,100265.31
2022-10-07T16:02:36.277Z,100263.97
2022-10-07T16:05:29.188Z,100268.16
2022-10-07T16:08:17.020Z,100263.00
2022-10-07T16:11:07.224Z,100273.69
2022-10-07T16:13:55.045Z,100273.47
2022-10-07T16:16:43.341Z,100273.47
2022-10-07T16:19:31.138Z,100270.44
2022-10-07T16:22:18.925Z,100273.31
2022-10-07T16:25:07.055Z,100275.97
2022-10-07T16:28:13.522Z,100268.19
2022-10-07T16:31:01.338Z,100263.22
2022-10-07T16:33:54.036Z,100266.66
2022-10-07T16:36:45.498Z,100256.56
2022-10-07T16:39:33.571Z,100247.22
2022-10-07T16:42:23.306Z,100257.13
2022-10-07T16:45:11.208Z,100253.34
2022-10-07T16:48:03.800Z,100248.94
2022-10-07T16:50:51.589Z,100250.28
2022-10-07T16:53:41.096Z,100248.00
2022-10-07T16:56:31.192Z,100246.47
2022-10-07T16:59:24.314Z,100249.34
2022-10-07T17:02:12.368Z,100243.44
2022-10-07T17:05:00.293Z,100246.28
2022-10-07T17:07:48.962Z,100257.53
2022-10-07T17:10:40.248Z,100246.69
2022-10-07T17:13:31.677Z,100252.38
2022-10-07T17:16:21.669Z,100249.34
2022-10-07T17:19:13.827Z,100258.84
2022-10-07T17:22:01.641Z,100252.00
2022-10-07T17:24:49.772Z,100250.47
2022-10-07T17:27:39.809Z,100256.16
2022-10-07T17:30:30.632Z,100251.78
2022-10-07T17:33:18.401Z,100249.50
2022-10-07T17:36:08.545Z,100253.91
2022-10-07T17:38:58.860Z,100247.44
2022-10-07T17:41:47.016Z,100254.47
2022-10-07T17:44:34.750Z,100245.72
2022-10-07T17:47:22.499Z,100245.53
2022-10-07T17:50:10.381Z,100255.25
2022-10-07T17:53:00.374Z,100251.44
2022-10-07T17:55:52.245Z,100251.81
2022-10-07T17:58:43.333Z,100250.28
2022-10-07T18:01:34.102Z,100249.34
2022-10-07T18:04:24.941Z,100248.38
2022-10-07T18:07:17.392Z,100244.56
2022-10-07T18:10:05.461Z,100237.16
2022-10-07T18:13:11.732Z,100243.63
2022-10-07T18:16:00.795Z,100241.16
2022-10-07T18:18:56.673Z,100248.00
2022-10-07T18:21:48.025Z,100243.63
2022-10-07T18:24:35.911Z,100242.47
2022-10-07T18:27:27.079Z,100243.63
2022-10-07T18:30:14.900Z,100240.78
2022-10-07T18:33:02.619Z,100240.78
2022-10-07T18:36:07.436Z,100232.97
2022-10-07T18:38:58.308Z,100223.66
2022-10-07T18:41:46.306Z,100227.25
2022-10-07T18:44:34.149Z,100222.91
2022-10-07T18:47:21.938Z,100217.97
2022-10-07T18:50:12.301Z,100215.66
2022-10-07T18:53:00.698Z,100214.91
2022-10-07T18:55:48.509Z,100208.44
2022-10-07T18:58:39.397Z,100213.41
2022-10-07T19:01:30.167Z,100209.19
2022-10-07T19:04:18.611Z,100199.88
2022-10-07T19:07:06.418Z,100205.56
2022-10-07T19:09:54.230Z,100205.56
2022-10-07T19:13:00.229Z,100203.50
2022-10-07T19:15:48.006Z,100205.56
2022-10-07T19:18:35.797Z,100199.88
2022-10-07T19:21:24.313Z,100192.06
2022-10-07T19:24:12.543Z,100199.13
2022-10-07T19:27:02.766Z,100199.13
2022-10-07T19:29:51.053Z,100198.91
2022-10-07T19:32:38.879Z,100198.16
2022-10-07T19:35:26.646Z,100197.97
2022-10-07T19:38:14.747Z,100191.31
2022-10-07T19:41:02.545Z,100185.44
2022-10-07T19:43:50.969Z,100193.03
2022-10-07T19:46:39.436Z,100191.31
2022-10-07T19:49:28.352Z,100196.09
2022-10-07T19:52:16.991Z,100192.28
2022-10-07T19:55:05.580Z,100194.13
2022-10-07T19:57:54.576Z,100188.25
2022-10-07T20:00:42.525Z,100183.66
2022-10-07T20:03:30.512Z,100174.94
2022-10-07T20:06:18.285Z,100181.78
2022-10-07T20:09:09.210Z,100182.91
2022-10-07T20:11:56.993Z,100183.50
2022-10-07T20:14:45.380Z,100175.31
2022-10-07T20:17:33.184Z,100173.59
2022-10-07T20:20:24.332Z,100166.16
2022-10-07T20:23:12.066Z,100165.22
2022-10-07T20:26:08.047Z,100167.88
2022-10-07T20:28:59.474Z,100165.41
2022-10-07T20:31:47.300Z,100171.69
2022-10-07T20:34:35.086Z,100162.16
2022-10-07T20:37:25.337Z,100168.44
2022-10-07T20:40:31.678Z,100170.34
2022-10-07T20:43:21.644Z,100169.94
2022-10-07T20:46:09.516Z,100168.97
2022-10-07T20:48:57.335Z,100165.19
2022-10-07T20:51:45.508Z,100168.59
2022-10-07T20:54:33.346Z,100167.66
2022-10-07T20:57:27.375Z,100173.13
2022-10-07T21:00:16.871Z,100171.38
2022-10-07T21:03:04.681Z,100161.34
2022-10-07T21:05:59.051Z,100162.47
2022-10-07T21:08:47.253Z,100164.34
2022-10-07T21:11:35.494Z,100165.66
2022-10-07T21:14:23.298Z,100159.03
2022-10-07T21:17:11.678Z,100155.41
2022-10-07T21:19:59.432Z,100155.22
2022-10-07T21:22:48.539Z,100149.88
2022-10-07T21:25:36.676Z,100151.19
2022-10-07T21:28:25.058Z,100143.22
2022-10-07T21:31:17.400Z,100151.59
2022-10-07T21:34:08.439Z,100146.44
2022-10-07T21:36:57.244Z,100144.94
2022-10-07T21:39:44.963Z,100141.13
2022-10-07T21:42:32.764Z,100150.22
2022-10-07T21:45:20.497Z,100146.44
2022-10-07T21:48:08.339Z,100150.59
2022-10-07T21:50:58.057Z,100144.69
2022-10-07T21:53:51.138Z,100148.69
2022-10-07T21:56:38.930Z,100145.63
2022-10-07T21:59:26.697Z,100148.28
2022-10-07T22:02:14.510Z,100144.69
2022-10-07T22:05:02.323Z,100152.25
2022-10-07T22:08:08.625Z,100149.19
2022-10-07T22:11:19.628Z,100144.63
2022-10-07T22:14:12.310Z,100145.00
2022-10-07T22:17:00.719Z,100144.78
2022-10-07T22:19:49.336Z,100148.22
2022-10-07T22:22:37.078Z,100142.88
2022-10-07T22:25:24.839Z,100144.22
2022-10-07T22:28:12.618Z,100135.44
2022-10-07T22:31:03.924Z,100123.84
2022-10-07T22:33:59.546Z,100129.34
2022-10-07T22:36:47.315Z,100127.06
2022-10-07T22:39:35.072Z,100127.63
2022-10-07T22:42:22.866Z,100129.53
2022-10-07T22:45:10.974Z,100124.38
2022-10-07T22:47:58.860Z,100131.41
2022-10-07T22:50:46.591Z,100127.56
2022-10-07T22:53:36.200Z,100125.31
2022-10-07T22:56:27.516Z,100127.97
2022-10-07T22:59:15.358Z,100126.41
2022-10-07T23:02:03.233Z,100126.22
2022-10-07T23:04:51.031Z,100123.19
2022-10-07T23:07:38.775Z,100115.19
2022-10-07T23:10:26.496Z,100117.28
2022-10-07T23:13:14.306Z,100110.09
2022-10-07T23:16:05.996Z,100117.09
2022-10-07T23:18:53.857Z,100116.91
2022-10-07T23:21:41.682Z,100115.38
2022-10-07T23:24:29.445Z,100119.31
2022-10-07T23:27:17.186Z,100109.25
2022-10-07T23:30:05.581Z,100113.44
2022-10-07T23:32:53.351Z,100105.44
2022-10-07T23:35:41.669Z,100103.19
2022-10-07T23:38:29.673Z,100098.03
2022-10-07T23:41:21.030Z,100105.06
2022-10-07T23:44:08.806Z,100107.72
2022-10-07T23:46:56.654Z,100107.72
2022-10-07T23:49:44.439Z,100100.31
2022-10-07T23:52:32.618Z,100100.84
2022-10-07T23:55:20.455Z,100104.66
2022-10-07T23:58:08.227Z,100092.66
